createdAt,value
2019-06-07T00:00:58.214Z,992.73
2019-06-07T00:01:58.198Z,992.73
2019-06-07T00:02:58.193Z,992.75
2019-06-07T00:03:58.198Z,992.76
2019-06-07T00:04:58.169Z,992.73
2019-06-07T00:05:58.157Z,992.84
2019-06-07T00:06:58.150Z,992.79
2019-06-07T00:08:07.676Z,992.82
2019-06-07T00:08:59.153Z,992.75
2019-06-07T00:09:58.122Z,992.69
2019-06-07T00:10:58.107Z,992.71
2019-06-07T00:11:58.095Z,992.67
2019-06-07T00:12:58.087Z,992.68
2019-06-07T00:13:58.075Z,992.67
2019-06-07T00:14:58.081Z,992.68
2019-06-07T00:15:58.061Z,992.65
2019-06-07T00:16:58.042Z,992.66
2019-06-07T00:17:58.035Z,992.62
2019-06-07T00:18:58.058Z,992.65
2019-06-07T00:19:58.009Z,992.58
2019-06-07T00:20:58.017Z,992.56
2019-06-07T00:22:18.432Z,992.56
2019-06-07T00:22:58.975Z,992.59
2019-06-07T00:23:57.975Z,992.50
2019-06-07T00:24:57.955Z,992.50
2019-06-07T00:25:57.945Z,992.57
2019-06-07T00:26:59.237Z,992.49
2019-06-07T00:27:57.927Z,992.54
2019-06-07T00:28:57.912Z,992.57
2019-06-07T00:29:57.901Z,992.57
2019-06-07T00:30:57.904Z,992.57
2019-06-07T00:31:57.880Z,992.57
2019-06-07T00:32:57.936Z,992.59
2019-06-07T00:33:57.865Z,992.56
2019-06-07T00:34:57.847Z,992.52
2019-06-07T00:35:57.841Z,992.59
2019-06-07T00:36:57.835Z,992.57
2019-06-07T00:37:57.814Z,992.56
2019-06-07T00:38:57.826Z,992.56
2019-06-07T00:40:13.369Z,992.61
2019-06-07T00:40:58.784Z,992.57
2019-06-07T00:41:57.780Z,992.55
2019-06-07T00:42:57.763Z,992.61
2019-06-07T00:43:57.752Z,992.59
2019-06-07T00:44:57.761Z,992.63
2019-06-07T00:45:57.743Z,992.60
2019-06-07T00:46:57.723Z,992.60
2019-06-07T00:47:57.709Z,992.66
2019-06-07T00:48:57.704Z,992.68
2019-06-07T00:49:57.691Z,992.66
2019-06-07T00:50:57.692Z,992.70
2019-06-07T00:51:57.673Z,992.71
2019-06-07T00:53:14.858Z,992.72
2019-06-07T00:53:58.653Z,992.80
2019-06-07T00:54:57.637Z,992.79
2019-06-07T00:55:57.621Z,992.76
2019-06-07T00:56:57.636Z,992.77
2019-06-07T00:57:57.609Z,992.73
2019-06-07T00:59:10.787Z,992.73
2019-06-07T00:59:58.583Z,992.73
2019-06-07T01:00:57.606Z,992.71
2019-06-07T01:01:57.565Z,992.67
2019-06-07T01:02:57.585Z,992.66
2019-06-07T01:03:57.542Z,992.70
2019-06-07T01:04:57.530Z,992.65
2019-06-07T01:05:57.517Z,992.66
2019-06-07T01:06:57.504Z,992.61
2019-06-07T01:07:57.517Z,992.69
2019-06-07T01:08:57.513Z,992.65
2019-06-07T01:09:57.482Z,992.64
2019-06-07T01:10:57.463Z,992.62
2019-06-07T01:11:57.450Z,992.65
2019-06-07T01:12:57.442Z,992.65
2019-06-07T01:13:57.435Z,992.60
2019-06-07T01:14:57.441Z,992.63
2019-06-07T01:15:57.432Z,992.61
2019-06-07T01:17:13.516Z,992.60
2019-06-07T01:18:33.661Z,992.64
2019-06-07T01:18:58.379Z,992.63
2019-06-07T01:19:57.367Z,992.61
2019-06-07T01:20:57.371Z,992.63
2019-06-07T01:21:57.476Z,992.58
2019-06-07T01:22:57.336Z,992.58
2019-06-07T01:24:11.319Z,992.56
2019-06-07T01:24:58.311Z,992.56
2019-06-07T01:25:57.311Z,992.55
2019-06-07T01:26:57.307Z,992.57
2019-06-07T01:27:57.287Z,992.65
2019-06-07T01:28:57.276Z,992.59
2019-06-07T01:29:57.263Z,992.62
2019-06-07T01:30:57.252Z,992.63
2019-06-07T01:31:57.242Z,992.61
2019-06-07T01:32:57.261Z,992.65
2019-06-07T01:33:57.219Z,992.62
2019-06-07T01:34:57.211Z,992.57
2019-06-07T01:35:57.195Z,992.61
2019-06-07T01:36:57.212Z,992.61
2019-06-07T01:37:57.180Z,992.60
2019-06-07T01:38:57.180Z,992.63
2019-06-07T01:39:57.154Z,992.62
2019-06-07T01:40:57.144Z,992.61
2019-06-07T01:41:57.135Z,992.62
2019-06-07T01:42:57.119Z,992.62
2019-06-07T01:43:57.108Z,992.60
2019-06-07T01:44:57.119Z,992.60
2019-06-07T01:45:57.089Z,992.58
2019-06-07T01:46:57.077Z,992.56
2019-06-07T01:47:57.089Z,992.53
2019-06-07T01:48:57.065Z,992.51
2019-06-07T01:49:57.046Z,992.51
2019-06-07T01:50:57.052Z,992.57
2019-06-07T01:51:57.030Z,992.53
2019-06-07T01:52:57.012Z,992.49
2019-06-07T01:54:41.317Z,992.49
2019-06-07T01:54:59.123Z,992.46
2019-06-07T01:55:56.981Z,992.46
2019-06-07T01:56:56.984Z,992.48
2019-06-07T01:57:56.958Z,992.44
2019-06-07T01:58:56.946Z,992.42
2019-06-07T01:59:56.960Z,992.39
2019-06-07T02:00:56.956Z,992.35
2019-06-07T02:01:56.918Z,992.36
2019-06-07T02:02:56.946Z,992.35
2019-06-07T02:03:56.898Z,992.35
2019-06-07T02:04:56.895Z,992.32
2019-06-07T02:05:56.895Z,992.37
2019-06-07T02:06:56.861Z,992.26
2019-06-07T02:07:56.854Z,992.36
2019-06-07T02:08:56.859Z,992.33
2019-06-07T02:09:56.840Z,992.34
2019-06-07T02:10:56.820Z,992.30
2019-06-07T02:11:56.814Z,992.29
2019-06-07T02:12:56.796Z,992.29
2019-06-07T02:13:56.790Z,992.24
2019-06-07T02:14:56.794Z,992.21
2019-06-07T02:15:56.768Z,992.20
2019-06-07T02:16:56.754Z,992.24
2019-06-07T02:17:56.770Z,992.28
2019-06-07T02:19:02.005Z,992.28
2019-06-07T02:19:57.746Z,992.27
2019-06-07T02:20:56.710Z,992.32
2019-06-07T02:21:56.699Z,992.28
2019-06-07T02:22:56.690Z,992.27
2019-06-07T02:23:56.680Z,992.21
2019-06-07T02:25:34.442Z,992.24
2019-06-07T02:25:57.674Z,992.30
2019-06-07T02:26:56.648Z,992.24
2019-06-07T02:28:25.768Z,992.29
2019-06-07T02:28:57.621Z,992.28
2019-06-07T02:29:56.618Z,992.22
2019-06-07T02:30:59.917Z,992.27
2019-06-07T02:31:56.640Z,992.26
2019-06-07T02:32:56.595Z,992.27
2019-06-07T02:33:56.576Z,992.31
2019-06-07T02:34:56.563Z,992.28
2019-06-07T02:35:56.562Z,992.24
2019-06-07T02:36:56.543Z,992.26
2019-06-07T02:37:56.547Z,992.25
2019-06-07T02:38:56.517Z,992.27
2019-06-07T02:39:56.506Z,992.26
2019-06-07T02:40:56.517Z,992.24
2019-06-07T02:41:56.483Z,992.24
2019-06-07T02:42:56.472Z,992.24
2019-06-07T02:43:56.497Z,992.21
2019-06-07T02:44:56.450Z,992.17
2019-06-07T02:45:56.441Z,992.12
2019-06-07T02:46:56.433Z,992.16
2019-06-07T02:47:56.421Z,992.03
2019-06-07T02:48:56.408Z,992.07
2019-06-07T02:49:56.414Z,992.13
2019-06-07T02:50:56.418Z,992.13
2019-06-07T02:51:56.377Z,992.10
2019-06-07T02:52:56.367Z,992.10
2019-06-07T02:53:56.359Z,992.03
2019-06-07T02:54:56.341Z,992.04
2019-06-07T02:56:34.938Z,992.01
2019-06-07T02:56:58.918Z,992.03
2019-06-07T02:57:56.311Z,992.03
2019-06-07T02:58:56.298Z,992.03
2019-06-07T03:00:16.709Z,992.09
2019-06-07T03:01:08.556Z,991.98
2019-06-07T03:01:57.276Z,992.01
2019-06-07T03:02:56.259Z,992.09
2019-06-07T03:03:56.246Z,992.02
2019-06-07T03:04:56.236Z,992.08
2019-06-07T03:05:56.245Z,991.95
2019-06-07T03:06:56.454Z,991.98
2019-06-07T03:07:56.214Z,991.97
2019-06-07T03:08:56.192Z,992.02
2019-06-07T03:09:56.181Z,992.01
2019-06-07T03:10:56.169Z,991.97
2019-06-07T03:11:56.163Z,991.98
2019-06-07T03:12:56.175Z,991.93
2019-06-07T03:13:56.135Z,991.92
2019-06-07T03:14:56.170Z,991.95
2019-06-07T03:15:56.116Z,992.00
2019-06-07T03:16:56.112Z,991.91
2019-06-07T03:17:56.090Z,991.89
2019-06-07T03:18:56.100Z,991.91
2019-06-07T03:19:56.070Z,991.97
2019-06-07T03:21:04.945Z,991.92
2019-06-07T03:21:57.077Z,991.93
2019-06-07T03:22:56.037Z,991.92
2019-06-07T03:23:56.026Z,991.94
2019-06-07T03:24:56.044Z,991.93
2019-06-07T03:25:56.028Z,991.90
2019-06-07T03:27:32.644Z,991.93
2019-06-07T03:27:56.992Z,991.88
2019-06-07T03:28:55.976Z,991.89
2019-06-07T03:29:55.958Z,991.85
2019-06-07T03:31:01.998Z,991.85
2019-06-07T03:31:56.938Z,991.90
2019-06-07T03:32:55.926Z,991.86
2019-06-07T03:33:55.996Z,991.85
2019-06-07T03:34:55.907Z,991.87
2019-06-07T03:35:55.890Z,991.94
2019-06-07T03:36:55.913Z,991.88
2019-06-07T03:37:55.875Z,991.94
2019-06-07T03:38:55.860Z,991.90
2019-06-07T03:39:55.850Z,991.89
2019-06-07T03:40:55.835Z,991.87
2019-06-07T03:42:06.388Z,991.83
2019-06-07T03:42:56.836Z,991.88
2019-06-07T03:43:55.817Z,991.83
2019-06-07T03:44:55.796Z,991.85
2019-06-07T03:45:55.782Z,991.84
2019-06-07T03:46:55.784Z,991.89
2019-06-07T03:47:55.757Z,991.87
2019-06-07T03:48:55.768Z,991.92
2019-06-07T03:49:55.739Z,991.94
2019-06-07T03:51:04.250Z,991.95
2019-06-07T03:51:56.713Z,991.94
2019-06-07T03:52:55.713Z,991.97
2019-06-07T03:53:55.696Z,991.94
2019-06-07T03:54:55.701Z,991.98
2019-06-07T03:55:55.672Z,991.98
2019-06-07T03:56:55.659Z,991.98
2019-06-07T03:58:56.650Z,991.99
2019-06-07T03:59:55.628Z,992.02
2019-06-07T04:00:55.636Z,992.02
2019-06-07T04:01:55.619Z,992.05
2019-06-07T04:02:55.599Z,991.97
2019-06-07T04:03:55.586Z,991.92
2019-06-07T04:04:55.574Z,991.94
2019-06-07T04:05:55.565Z,991.92
2019-06-07T04:06:55.570Z,991.89
2019-06-07T04:07:55.543Z,991.92
2019-06-07T04:08:55.554Z,991.91
2019-06-07T04:09:55.523Z,991.90
2019-06-07T04:11:00.246Z,991.89
2019-06-07T04:11:56.513Z,991.82
2019-06-07T04:12:55.492Z,991.85
2019-06-07T04:13:55.536Z,991.82
2019-06-07T04:14:55.469Z,991.76
2019-06-07T04:15:55.459Z,991.84
2019-06-07T04:16:55.451Z,991.83
2019-06-07T04:18:01.912Z,991.82
2019-06-07T04:18:56.426Z,991.79
2019-06-07T04:19:55.432Z,991.80
2019-06-07T04:20:55.413Z,991.76
2019-06-07T04:21:55.393Z,991.76
2019-06-07T04:22:55.390Z,991.77
2019-06-07T04:23:55.405Z,991.81
2019-06-07T04:24:55.364Z,991.76
2019-06-07T04:25:55.407Z,991.87
2019-06-07T04:26:55.347Z,991.93
2019-06-07T04:27:55.332Z,991.86
2019-06-07T04:29:31.758Z,991.78
2019-06-07T04:30:07.171Z,991.75
2019-06-07T04:30:56.302Z,991.74
2019-06-07T04:31:55.290Z,991.67
2019-06-07T04:32:55.281Z,991.74
2019-06-07T04:33:55.270Z,991.74
2019-06-07T04:34:55.281Z,991.64
2019-06-07T04:35:55.262Z,991.61
2019-06-07T04:36:59.319Z,991.54
2019-06-07T04:37:55.220Z,991.56
2019-06-07T04:38:55.211Z,991.58
2019-06-07T04:39:55.206Z,991.44
2019-06-07T04:40:55.186Z,991.42
2019-06-07T04:41:55.192Z,991.37
2019-06-07T04:42:55.166Z,991.33
2019-06-07T04:43:55.179Z,991.34
2019-06-07T04:44:55.143Z,991.35
2019-06-07T04:45:55.135Z,991.30
2019-06-07T04:46:55.116Z,991.22
2019-06-07T04:47:55.157Z,991.29
2019-06-07T04:48:55.096Z,991.20
2019-06-07T04:49:55.083Z,991.15
2019-06-07T04:50:55.078Z,991.15
2019-06-07T04:51:55.058Z,991.11
2019-06-07T04:52:55.106Z,991.07
2019-06-07T04:53:55.055Z,991.19
2019-06-07T04:54:55.031Z,991.40
2019-06-07T04:55:55.018Z,991.36
2019-06-07T04:56:55.005Z,991.27
2019-06-07T04:57:54.999Z,991.28
2019-06-07T04:58:54.980Z,991.20
2019-06-07T05:00:11.865Z,991.23
2019-06-07T05:01:02.625Z,991.41
2019-06-07T05:01:55.950Z,991.39
2019-06-07T05:02:54.933Z,991.43
2019-06-07T05:03:54.924Z,991.56
2019-06-07T05:04:54.911Z,991.61
2019-06-07T05:05:54.918Z,991.57
2019-06-07T05:06:54.892Z,991.52
2019-06-07T05:07:54.878Z,991.60
2019-06-07T05:08:54.878Z,991.53
2019-06-07T05:09:54.858Z,991.50
2019-06-07T05:10:54.842Z,991.54
2019-06-07T05:11:54.848Z,991.59
2019-06-07T05:12:54.819Z,991.51
2019-06-07T05:13:54.806Z,991.50
2019-06-07T05:14:54.798Z,991.57
2019-06-07T05:15:54.809Z,991.52
2019-06-07T05:16:54.768Z,991.57
2019-06-07T05:17:54.782Z,991.64
2019-06-07T05:18:54.747Z,991.62
2019-06-07T05:19:54.741Z,991.49
2019-06-07T05:20:54.721Z,991.46
2019-06-07T05:22:04.208Z,991.36
2019-06-07T05:22:55.724Z,991.40
2019-06-07T05:24:06.400Z,991.43
2019-06-07T05:24:55.676Z,991.44
2019-06-07T05:25:54.663Z,991.58
2019-06-07T05:26:54.652Z,991.64
2019-06-07T05:27:54.646Z,991.65
2019-06-07T05:28:54.656Z,991.59
2019-06-07T05:30:09.557Z,991.59
2019-06-07T05:31:04.580Z,991.60
2019-06-07T05:31:55.591Z,991.62
2019-06-07T05:32:54.586Z,991.68
2019-06-07T05:33:54.576Z,991.74
2019-06-07T05:34:54.575Z,991.76
2019-06-07T05:35:54.554Z,991.75
2019-06-07T05:37:11.051Z,991.80
2019-06-07T05:37:55.523Z,991.78
2019-06-07T05:38:54.615Z,991.74
2019-06-07T05:39:54.500Z,991.73
2019-06-07T05:40:54.503Z,991.77
2019-06-07T05:41:54.477Z,991.75
2019-06-07T05:42:54.475Z,991.74
2019-06-07T05:44:11.697Z,991.74
2019-06-07T05:44:55.447Z,991.68
2019-06-07T05:45:54.466Z,991.80
2019-06-07T05:46:54.443Z,991.73
2019-06-07T05:47:54.918Z,991.77
2019-06-07T05:48:54.405Z,991.81
2019-06-07T05:49:54.410Z,991.83
2019-06-07T05:50:57.309Z,991.86
2019-06-07T05:51:54.371Z,991.84
2019-06-07T05:52:54.388Z,991.93
2019-06-07T05:53:54.344Z,991.89
2019-06-07T05:54:54.353Z,991.84
2019-06-07T05:55:54.325Z,991.82
2019-06-07T05:56:54.310Z,991.84
2019-06-07T05:57:54.305Z,991.82
2019-06-07T05:58:54.315Z,991.92
2019-06-07T05:59:54.298Z,991.98
2019-06-07T06:00:54.264Z,991.99
2019-06-07T06:02:02.724Z,991.98
2019-06-07T06:03:04.893Z,991.76
2019-06-07T06:03:55.337Z,992.00
2019-06-07T06:04:54.222Z,991.93
2019-06-07T06:05:55.610Z,991.92
2019-06-07T06:06:54.210Z,991.99
2019-06-07T06:07:54.198Z,991.36
2019-06-07T06:09:12.869Z,991.30
2019-06-07T06:09:57.917Z,991.74
2019-06-07T06:10:54.159Z,991.98
2019-06-07T06:12:01.680Z,991.74
2019-06-07T06:12:55.152Z,991.83
2019-06-07T06:14:06.529Z,991.65
2019-06-07T06:14:55.106Z,991.68
2019-06-07T06:16:01.176Z,991.27
2019-06-07T06:16:55.118Z,991.46
2019-06-07T06:17:54.236Z,991.30
2019-06-07T06:18:54.072Z,991.48
2019-06-07T06:19:54.089Z,991.68
2019-06-07T06:21:15.709Z,991.69
2019-06-07T06:21:55.066Z,991.77
2019-06-07T06:22:54.021Z,991.58
2019-06-07T06:23:54.148Z,991.59
2019-06-07T06:25:29.727Z,991.57
2019-06-07T06:25:57.346Z,991.59
2019-06-07T06:27:00.290Z,991.47
2019-06-07T06:28:10.070Z,991.61
2019-06-07T06:28:56.307Z,991.77
2019-06-07T06:29:53.947Z,991.65
2019-06-07T06:30:53.938Z,991.51
2019-06-07T06:32:39.470Z,991.61
2019-06-07T06:32:58.234Z,991.41
2019-06-07T06:33:54.033Z,991.36
2019-06-07T06:34:55.903Z,991.45
2019-06-07T06:35:53.879Z,991.50
2019-06-07T06:36:53.868Z,991.71
2019-06-07T06:37:53.908Z,991.43
2019-06-07T06:38:53.843Z,991.35
2019-06-07T06:39:53.873Z,991.50
2019-06-07T06:41:12.147Z,991.20
2019-06-07T06:42:01.087Z,991.49
2019-06-07T06:42:54.796Z,991.63
2019-06-07T06:43:53.830Z,991.52
2019-06-07T06:44:54.289Z,991.52
2019-06-07T06:45:53.835Z,991.49
2019-06-07T06:46:58.069Z,991.30
2019-06-07T06:47:55.462Z,991.22
2019-06-07T06:48:55.166Z,991.14
2019-06-07T06:49:54.522Z,991.09
2019-06-07T06:50:53.714Z,991.28
2019-06-07T06:51:54.028Z,991.28
2019-06-07T06:52:54.866Z,991.54
2019-06-07T06:53:53.676Z,991.81
2019-06-07T06:55:00.115Z,991.53
2019-06-07T06:55:54.657Z,991.18
2019-06-07T06:56:53.643Z,991.11
2019-06-07T06:57:53.665Z,991.39
2019-06-07T06:59:34.689Z,991.70
2019-06-07T06:59:54.642Z,991.60
2019-06-07T07:01:05.900Z,991.46
2019-06-07T07:01:54.583Z,991.38
2019-06-07T07:03:40.684Z,991.62
2019-06-07T07:04:11.064Z,991.32
2019-06-07T07:04:54.549Z,991.29
2019-06-07T07:05:54.918Z,991.49
2019-06-07T07:06:53.909Z,991.09
2019-06-07T07:07:53.519Z,991.11
2019-06-07T07:08:53.631Z,991.03
2019-06-07T07:09:58.968Z,991.52
2019-06-07T07:10:55.221Z,991.58
2019-06-07T07:12:10.305Z,991.83
2019-06-07T07:12:54.514Z,991.87
2019-06-07T07:13:56.470Z,991.64
2019-06-07T07:14:56.096Z,991.46
2019-06-07T07:15:58.077Z,991.62
2019-06-07T07:16:56.652Z,991.62
2019-06-07T07:18:07.965Z,991.55
2019-06-07T07:18:54.873Z,991.03
2019-06-07T07:19:55.671Z,991.09
2019-06-07T07:20:56.775Z,991.25
2019-06-07T07:21:55.309Z,991.19
2019-06-07T07:22:56.865Z,990.93
2019-06-07T07:24:19.472Z,990.95
2019-06-07T07:24:54.993Z,991.58
2019-06-07T07:25:59.067Z,991.80
2019-06-07T07:26:58.284Z,991.44
2019-06-07T07:27:55.255Z,991.53
2019-06-07T07:28:57.134Z,991.31
2019-06-07T07:30:29.379Z,991.21
2019-06-07T07:30:57.145Z,991.33
2019-06-07T07:31:56.202Z,991.48
2019-06-07T07:32:57.206Z,991.53
2019-06-07T07:35:00.056Z,991.54
2019-06-07T07:36:17.545Z,991.62
2019-06-07T07:36:59.634Z,991.26
2019-06-07T07:37:59.646Z,991.22
2019-06-07T07:39:00.730Z,990.99
2019-06-07T07:40:01.408Z,991.08
2019-06-07T07:41:10.061Z,990.97
2019-06-07T07:42:16.717Z,991.11
2019-06-07T07:42:56.549Z,991.11
2019-06-07T07:44:04.690Z,990.97
2019-06-07T07:44:56.498Z,991.33
2019-06-07T07:45:59.141Z,991.42
2019-06-07T07:46:55.931Z,991.50
2019-06-07T07:48:11.079Z,991.50
2019-06-07T07:48:56.019Z,991.29
2019-06-07T07:49:58.504Z,991.28
2019-06-07T07:51:00.046Z,991.37
2019-06-07T07:51:58.331Z,991.35
2019-06-07T07:52:56.863Z,991.37
2019-06-07T07:54:08.698Z,991.34
2019-06-07T07:54:56.639Z,991.29
2019-06-07T07:55:58.514Z,991.25
2019-06-07T07:56:56.153Z,991.28
2019-06-07T07:58:00.913Z,991.27
2019-06-07T07:59:01.017Z,991.23
2019-06-07T08:00:06.008Z,991.31
2019-06-07T08:01:08.489Z,991.05
2019-06-07T08:01:55.966Z,991.13
2019-06-07T08:02:56.138Z,991.16
2019-06-07T08:03:54.874Z,991.06
2019-06-07T08:05:20.178Z,991.10
2019-06-07T08:05:58.373Z,991.24
2019-06-07T08:06:55.995Z,991.08
2019-06-07T08:07:56.527Z,990.93
2019-06-07T08:08:56.726Z,990.92
2019-06-07T08:09:57.693Z,990.93
2019-06-07T08:10:58.069Z,990.95
2019-06-07T08:12:00.028Z,991.00
2019-06-07T08:13:14.456Z,990.95
2019-06-07T08:13:57.266Z,990.99
2019-06-07T08:14:57.471Z,991.00
2019-06-07T08:15:58.779Z,990.91
2019-06-07T08:16:54.500Z,990.85
2019-06-07T08:17:58.093Z,990.86
2019-06-07T08:19:00.330Z,990.79
2019-06-07T08:19:55.011Z,990.71
2019-06-07T08:21:15.065Z,990.70
2019-06-07T08:21:55.710Z,990.87
2019-06-07T08:22:55.474Z,990.76
2019-06-07T08:23:58.316Z,990.88
2019-06-07T08:24:55.311Z,990.78
2019-06-07T08:25:56.624Z,990.68
2019-06-07T08:27:17.656Z,990.84
2019-06-07T08:27:55.999Z,990.71
2019-06-07T08:28:55.920Z,990.63
2019-06-07T08:30:14.354Z,990.60
2019-06-07T08:31:02.435Z,990.58
2019-06-07T08:31:55.827Z,990.54
2019-06-07T08:32:55.881Z,990.52
2019-06-07T08:33:58.070Z,990.48
2019-06-07T08:34:59.823Z,990.42
2019-06-07T08:36:54.911Z,990.56
2019-06-07T08:38:21.357Z,990.53
2019-06-07T08:38:57.865Z,990.50
2019-06-07T08:39:56.705Z,990.54
2019-06-07T08:40:59.081Z,990.44
2019-06-07T08:42:08.856Z,990.48
2019-06-07T08:43:15.115Z,990.56
2019-06-07T08:43:56.455Z,990.44
2019-06-07T08:44:54.320Z,990.36
2019-06-07T08:45:58.408Z,990.33
2019-06-07T08:47:11.731Z,990.41
2019-06-07T08:47:58.002Z,990.38
2019-06-07T08:48:55.990Z,990.32
2019-06-07T08:49:56.202Z,990.31
2019-06-07T08:50:57.065Z,990.27
2019-06-07T08:51:57.706Z,990.36
2019-06-07T08:52:56.942Z,990.37
2019-06-07T08:54:09.538Z,990.42
2019-06-07T08:54:54.898Z,990.27
2019-06-07T08:55:58.268Z,990.29
2019-06-07T08:56:55.761Z,990.26
2019-06-07T08:58:01.237Z,990.19
2019-06-07T08:58:56.438Z,990.25
2019-06-07T08:59:55.684Z,990.25
2019-06-07T09:00:55.508Z,990.24
2019-06-07T09:01:57.811Z,990.22
2019-06-07T09:02:55.668Z,990.19
2019-06-07T09:03:55.012Z,990.24
2019-06-07T09:04:54.773Z,990.21
2019-06-07T09:05:54.175Z,990.25
2019-06-07T09:07:07.267Z,990.18
2019-06-07T09:08:13.328Z,990.19
2019-06-07T09:08:53.813Z,990.12
2019-06-07T09:09:59.764Z,990.16
2019-06-07T09:10:54.036Z,990.17
2019-06-07T09:11:52.460Z,990.21
2019-06-07T09:12:54.394Z,990.11
2019-06-07T09:13:55.500Z,990.22
2019-06-07T09:15:09.434Z,990.21
2019-06-07T09:15:53.699Z,990.25
2019-06-07T09:16:55.380Z,990.03
2019-06-07T09:18:34.885Z,990.07
2019-06-07T09:18:57.001Z,990.07
2019-06-07T09:19:55.515Z,990.06
2019-06-07T09:20:52.095Z,990.01
2019-06-07T09:21:52.084Z,990.04
2019-06-07T09:22:52.086Z,989.92
2019-06-07T09:23:52.110Z,989.99
2019-06-07T09:24:52.058Z,989.89
2019-06-07T09:26:02.634Z,990.04
2019-06-07T09:26:53.028Z,989.98
2019-06-07T09:27:52.023Z,990.00
2019-06-07T09:28:52.029Z,989.92
2019-06-07T09:29:52.025Z,989.91
2019-06-07T09:30:51.997Z,989.81
2019-06-07T09:31:53.714Z,989.89
2019-06-07T09:32:51.971Z,989.88
2019-06-07T09:33:51.964Z,989.70
2019-06-07T09:34:51.956Z,989.75
2019-06-07T09:35:51.957Z,989.56
2019-06-07T09:36:52.044Z,989.44
2019-06-07T09:38:07.317Z,989.51
2019-06-07T09:38:52.909Z,989.52
2019-06-07T09:39:51.900Z,989.59
2019-06-07T09:40:51.895Z,989.60
2019-06-07T09:41:51.922Z,989.54
2019-06-07T09:43:38.643Z,989.70
2019-06-07T09:44:04.696Z,989.43
2019-06-07T09:44:52.851Z,989.47
2019-06-07T09:45:51.847Z,989.63
2019-06-07T09:47:12.845Z,989.58
2019-06-07T09:47:52.846Z,989.56
2019-06-07T09:49:52.841Z,989.55
2019-06-07T09:50:51.801Z,989.58
2019-06-07T09:51:51.782Z,989.42
2019-06-07T09:52:58.703Z,989.47
2019-06-07T09:53:52.799Z,989.39
2019-06-07T09:55:52.741Z,989.29
2019-06-07T09:56:51.731Z,989.35
2019-06-07T09:57:51.724Z,989.40
2019-06-07T09:58:53.683Z,989.26
2019-06-07T09:59:51.734Z,989.28
2019-06-07T10:00:51.741Z,989.19
2019-06-07T10:01:51.684Z,989.25
2019-06-07T10:02:51.698Z,989.21
2019-06-07T10:03:51.662Z,989.19
2019-06-07T10:04:51.650Z,989.23
2019-06-07T10:05:51.656Z,989.16
2019-06-07T10:06:51.643Z,989.00
2019-06-07T10:08:04.078Z,989.09
2019-06-07T10:10:52.616Z,989.01
2019-06-07T10:11:51.579Z,989.17
2019-06-07T10:12:51.573Z,989.10
2019-06-07T10:13:51.558Z,989.11
2019-06-07T10:14:51.556Z,989.01
2019-06-07T10:15:53.639Z,989.02
2019-06-07T10:16:51.546Z,988.95
2019-06-07T10:17:51.524Z,988.94
2019-06-07T10:18:51.513Z,989.11
2019-06-07T10:19:51.501Z,988.99
2019-06-07T10:20:51.493Z,988.95
2019-06-07T10:21:51.481Z,989.04
2019-06-07T10:22:51.488Z,989.01
2019-06-07T10:23:51.470Z,988.94
2019-06-07T10:24:51.447Z,989.06
2019-06-07T10:25:51.445Z,989.08
2019-06-07T10:26:51.442Z,989.07
2019-06-07T10:27:51.421Z,989.04
2019-06-07T10:28:53.547Z,988.98
2019-06-07T10:29:51.402Z,989.02
2019-06-07T10:30:51.400Z,989.00
2019-06-07T10:31:51.379Z,989.02
2019-06-07T10:32:52.296Z,989.05
2019-06-07T10:33:51.358Z,989.07
2019-06-07T10:34:51.370Z,989.06
2019-06-07T10:35:51.338Z,989.17
2019-06-07T10:36:51.335Z,989.25
2019-06-07T10:37:51.319Z,989.20
2019-06-07T10:38:51.398Z,989.14
2019-06-07T10:39:51.295Z,989.08
2019-06-07T10:40:51.310Z,989.18
2019-06-07T10:41:54.038Z,989.14
2019-06-07T10:42:51.264Z,989.13
2019-06-07T10:43:51.276Z,989.15
2019-06-07T10:44:51.251Z,989.21
2019-06-07T10:45:51.235Z,989.23
2019-06-07T10:46:51.245Z,989.26
2019-06-07T10:47:51.218Z,989.23
2019-06-07T10:48:51.209Z,989.03
2019-06-07T10:49:51.205Z,989.26
2019-06-07T10:50:51.204Z,989.17
2019-06-07T10:51:51.177Z,989.15
2019-06-07T10:52:51.193Z,989.09
2019-06-07T10:53:51.159Z,989.10
2019-06-07T10:54:51.144Z,989.10
2019-06-07T10:55:51.132Z,989.18
2019-06-07T10:56:51.128Z,989.00
2019-06-07T10:57:51.145Z,989.15
2019-06-07T10:58:51.124Z,989.08
2019-06-07T10:59:51.093Z,989.02
2019-06-07T11:00:51.290Z,988.92
2019-06-07T11:01:51.096Z,989.02
2019-06-07T11:02:54.758Z,988.90
2019-06-07T11:03:51.057Z,988.78
2019-06-07T11:04:51.058Z,988.90
2019-06-07T11:05:51.033Z,988.86
2019-06-07T11:06:51.041Z,988.91
2019-06-07T11:07:51.210Z,988.90
2019-06-07T11:08:51.004Z,988.85
2019-06-07T11:10:05.658Z,988.81
2019-06-07T11:10:51.998Z,988.84
2019-06-07T11:11:50.973Z,988.86
2019-06-07T11:12:50.964Z,988.84
2019-06-07T11:13:52.587Z,988.88
2019-06-07T11:14:50.947Z,988.77
2019-06-07T11:15:50.951Z,988.76
2019-06-07T11:16:51.002Z,988.73
2019-06-07T11:17:50.912Z,988.68
2019-06-07T11:18:50.900Z,988.65
2019-06-07T11:19:50.904Z,988.60
2019-06-07T11:20:50.899Z,988.63
2019-06-07T11:21:50.869Z,988.66
2019-06-07T11:22:50.887Z,988.63
2019-06-07T11:23:50.850Z,987.35
2019-06-07T11:24:50.846Z,988.51
2019-06-07T11:25:50.837Z,988.59
2019-06-07T11:26:50.818Z,988.52
2019-06-07T11:27:50.808Z,988.39
2019-06-07T11:28:50.844Z,988.37
2019-06-07T11:29:50.795Z,987.38
2019-06-07T11:30:50.859Z,987.44
2019-06-07T11:31:50.770Z,987.58
2019-06-07T11:32:50.770Z,987.42
2019-06-07T11:33:50.755Z,987.58
2019-06-07T11:34:51.046Z,987.45
2019-06-07T11:35:50.734Z,987.38
2019-06-07T11:36:51.215Z,987.32
2019-06-07T11:37:50.703Z,987.28
2019-06-07T11:38:50.701Z,987.27
2019-06-07T11:39:50.695Z,987.25
2019-06-07T11:40:50.725Z,987.22
2019-06-07T11:41:50.721Z,987.24
2019-06-07T11:42:52.761Z,987.22
2019-06-07T11:43:50.641Z,987.17
2019-06-07T11:44:56.752Z,987.19
2019-06-07T11:45:51.640Z,987.21
2019-06-07T11:46:50.610Z,987.18
2019-06-07T11:47:50.595Z,987.17
2019-06-07T11:48:50.587Z,987.16
2019-06-07T11:49:50.585Z,987.12
2019-06-07T11:50:50.575Z,987.11
2019-06-07T11:51:50.581Z,987.10
2019-06-07T11:52:50.546Z,987.15
2019-06-07T11:53:50.540Z,986.99
2019-06-07T11:54:50.544Z,986.97
2019-06-07T11:55:50.510Z,986.97
2019-06-07T11:56:50.501Z,986.98
2019-06-07T11:57:50.503Z,987.00
2019-06-07T11:58:50.491Z,986.93
2019-06-07T11:59:50.463Z,986.89
2019-06-07T12:00:50.451Z,986.92
2019-06-07T12:01:50.443Z,986.90
2019-06-07T12:02:50.436Z,986.93
2019-06-07T12:03:50.444Z,986.92
2019-06-07T12:04:50.406Z,986.99
2019-06-07T12:05:50.403Z,986.92
2019-06-07T12:06:50.384Z,986.93
2019-06-07T12:07:50.378Z,986.97
2019-06-07T12:08:50.368Z,986.98
2019-06-07T12:09:56.412Z,986.99
2019-06-07T12:10:51.338Z,986.98
2019-06-07T12:11:50.338Z,986.90
2019-06-07T12:12:50.325Z,986.97
2019-06-07T12:13:50.309Z,986.97
2019-06-07T12:14:50.296Z,986.96
2019-06-07T12:15:50.305Z,986.93
2019-06-07T12:16:50.273Z,986.94
2019-06-07T12:17:50.275Z,986.94
2019-06-07T12:18:50.250Z,986.91
2019-06-07T12:19:50.240Z,986.98
2019-06-07T12:20:50.227Z,986.90
2019-06-07T12:21:50.273Z,986.92
2019-06-07T12:22:50.224Z,986.90
2019-06-07T12:23:50.194Z,986.97
2019-06-07T12:24:50.182Z,986.86
2019-06-07T12:25:50.177Z,986.82
2019-06-07T12:26:50.161Z,986.86
2019-06-07T12:27:50.266Z,986.78
2019-06-07T12:28:50.141Z,986.77
2019-06-07T12:29:50.127Z,986.76
2019-06-07T12:30:50.115Z,986.87
2019-06-07T12:31:50.108Z,986.70
2019-06-07T12:32:50.091Z,986.62
2019-06-07T12:33:50.105Z,986.69
2019-06-07T12:34:50.068Z,986.62
2019-06-07T12:35:50.060Z,986.60